createdAt,value
2022-11-26T00:02:26.842Z,3.60
2022-11-26T00:07:00.489Z,3.50
2022-11-26T00:11:02.894Z,3.50
2022-11-26T00:15:23.355Z,3.40
2022-11-26T00:20:20.176Z,3.40
2022-11-26T00:25:20.321Z,3.40
2022-11-26T00:29:23.517Z,3.40
2022-11-26T00:33:28.842Z,3.40
2022-11-26T00:37:41.114Z,3.50
2022-11-26T00:41:51.053Z,3.50
2022-11-26T00:45:57.779Z,3.50
2022-11-26T00:49:59.602Z,3.50
2022-11-26T00:54:04.103Z,3.60
2022-11-26T00:58:30.680Z,3.60
2022-11-26T01:02:34.813Z,3.60
2022-11-26T01:06:39.932Z,3.60
2022-11-26T01:10:47.786Z,3.60
2022-11-26T01:14:49.906Z,3.60
2022-11-26T01:18:56.666Z,3.60
2022-11-26T01:22:59.103Z,3.60
2022-11-26T01:27:52.551Z,3.70
2022-11-26T01:31:58.682Z,3.70
2022-11-26T01:36:00.559Z,3.70
2022-11-26T01:40:05.221Z,3.70
2022-11-26T01:50:30.500Z,3.70
2022-11-26T01:54:35.150Z,3.80
2022-11-26T01:58:42.655Z,3.80
2022-11-26T02:03:47.210Z,3.80
2022-11-26T02:08:14.490Z,3.80
2022-11-26T02:12:16.443Z,3.80
2022-11-26T02:16:47.379Z,3.80
2022-11-26T02:21:02.413Z,3.80
2022-11-26T02:25:04.564Z,3.90
2022-11-26T02:29:17.582Z,3.80
2022-11-26T02:33:54.100Z,3.90
2022-11-26T02:38:01.852Z,3.80
2022-11-26T02:42:32.937Z,3.90
2022-11-26T02:47:04.952Z,3.90
2022-11-26T02:51:18.523Z,3.90
2022-11-26T02:55:25.365Z,3.90
2022-11-26T02:59:27.875Z,3.90
2022-11-26T03:03:58.326Z,3.90
2022-11-26T03:08:02.732Z,3.90
2022-11-26T03:12:04.850Z,3.90
2022-11-26T03:16:20.333Z,3.90
2022-11-26T03:20:26.509Z,3.90
2022-11-26T03:24:29.611Z,3.90
2022-11-26T03:28:35.672Z,3.80
2022-11-26T03:32:37.548Z,3.80
2022-11-26T03:36:39.370Z,3.80
2022-11-26T03:40:41.330Z,3.80
2022-11-26T03:44:44.374Z,3.80
2022-11-26T03:48:46.283Z,3.80
2022-11-26T03:52:48.135Z,3.80
2022-11-26T03:56:50.216Z,3.80
2022-11-26T04:00:52.094Z,3.80
2022-11-26T04:05:06.553Z,3.80
2022-11-26T04:09:08.658Z,3.80
2022-11-26T04:13:10.514Z,3.80
2022-11-26T04:18:02.860Z,3.80
2022-11-26T04:22:30.085Z,3.80
2022-11-26T04:26:37.363Z,3.80
2022-11-26T04:30:39.232Z,3.80
2022-11-26T04:34:53.475Z,3.80
2022-11-26T04:38:58.731Z,3.80
2022-11-26T04:43:02.687Z,3.80
2022-11-26T04:47:04.773Z,3.80
2022-11-26T04:51:17.187Z,3.80
2022-11-26T04:55:19.250Z,3.80
2022-11-26T04:59:21.170Z,3.80
2022-11-26T05:03:23.048Z,3.80
2022-11-26T05:07:25.183Z,3.80
2022-11-26T05:11:27.105Z,3.90
2022-11-26T05:15:29.013Z,3.90
2022-11-26T05:19:30.944Z,3.90
2022-11-26T05:23:33.204Z,3.80
2022-11-26T05:27:35.482Z,3.80
2022-11-26T05:31:37.603Z,3.60
2022-11-26T05:35:47.680Z,3.50
2022-11-26T05:40:17.355Z,3.40
2022-11-26T05:45:22.902Z,3.40
2022-11-26T05:49:25.104Z,3.40
2022-11-26T05:53:27.876Z,3.40
2022-11-26T05:58:11.160Z,3.40
2022-11-26T06:02:39.769Z,3.40
2022-11-26T06:06:56.532Z,3.30
2022-11-26T06:11:00.621Z,3.30
2022-11-26T06:15:02.810Z,3.40
2022-11-26T06:19:17.924Z,3.40
2022-11-26T06:24:20.282Z,3.50
2022-11-26T06:28:23.336Z,3.50
2022-11-26T06:32:32.471Z,3.60
2022-11-26T06:36:34.497Z,3.60
2022-11-26T06:40:36.326Z,3.70
2022-11-26T06:44:38.553Z,3.70
2022-11-26T06:48:40.846Z,3.80
2022-11-26T06:52:42.918Z,3.80
2022-11-26T06:56:44.847Z,3.80
2022-11-26T07:00:46.841Z,3.90
2022-11-26T07:04:55.002Z,3.90
2022-11-26T07:09:06.309Z,4.00
2022-11-26T07:13:52.298Z,4.00
2022-11-26T07:17:54.212Z,4.00
2022-11-26T07:22:01.194Z,4.00
2022-11-26T07:26:09.380Z,4.00
2022-11-26T07:30:13.255Z,4.20
2022-11-26T07:35:17.357Z,4.20
2022-11-26T07:57:16.231Z,5.00
2022-11-26T08:01:21.937Z,5.20
2022-11-26T08:05:23.924Z,5.30
2022-11-26T08:09:44.322Z,5.40
2022-11-26T08:14:14.299Z,5.50
2022-11-26T08:18:16.139Z,5.50
2022-11-26T08:22:18.046Z,5.50
2022-11-26T08:26:27.489Z,5.40
2022-11-26T08:30:32.842Z,5.40
2022-11-26T08:34:42.995Z,5.50
2022-11-26T08:39:14.557Z,5.60
2022-11-26T08:43:17.453Z,5.60
2022-11-26T08:47:19.516Z,5.80
2022-11-26T08:51:42.176Z,5.80
2022-11-26T08:55:59.795Z,5.90
2022-11-26T09:00:05.449Z,6.00
2022-11-26T09:05:15.343Z,6.00
2022-11-26T09:09:18.008Z,6.00
2022-11-26T09:13:26.210Z,6.10
2022-11-26T09:17:53.366Z,6.20
2022-11-26T09:22:21.430Z,6.20
2022-11-26T09:26:49.880Z,6.10
2022-11-26T09:30:57.835Z,6.20
2022-11-26T09:34:59.758Z,6.20
2022-11-26T09:40:04.900Z,6.20
2022-11-26T09:44:37.842Z,6.20
2022-11-26T09:48:41.484Z,6.20
2022-11-26T09:52:55.102Z,6.20
2022-11-26T09:57:21.066Z,6.20
2022-11-26T10:01:23.425Z,6.40
2022-11-26T10:05:40.590Z,6.60
2022-11-26T10:10:25.376Z,6.70
2022-11-26T10:15:17.088Z,6.90
2022-11-26T10:19:41.630Z,6.90
2022-11-26T10:23:49.472Z,6.70
2022-11-26T10:28:00.283Z,6.60
2022-11-26T10:32:27.529Z,6.50
2022-11-26T10:37:21.943Z,6.50
2022-11-26T10:41:29.831Z,6.30
2022-11-26T10:45:48.163Z,6.10
2022-11-26T10:49:52.599Z,6.10
2022-11-26T10:53:58.743Z,6.00
2022-11-26T10:58:23.560Z,5.70
2022-11-26T11:03:04.084Z,5.70
2022-11-26T11:07:31.014Z,5.60
2022-11-26T11:11:33.083Z,5.70
2022-11-26T11:15:38.891Z,5.70
2022-11-26T11:19:40.829Z,5.70
2022-11-26T11:28:51.140Z,5.70
2022-11-26T11:33:20.824Z,5.70
2022-11-26T11:37:22.762Z,5.60
2022-11-26T11:41:27.645Z,5.60
2022-11-26T11:45:53.262Z,5.60
2022-11-26T11:50:18.699Z,5.80
2022-11-26T11:54:25.105Z,5.80
2022-11-26T11:59:22.986Z,5.90
2022-11-26T12:04:19.390Z,6.00
2022-11-26T12:08:43.052Z,6.00
2022-11-26T12:12:48.490Z,6.10
2022-11-26T12:17:17.714Z,6.00
2022-11-26T12:21:35.560Z,6.00
2022-11-26T12:26:14.811Z,6.00
2022-11-26T12:30:36.980Z,6.00
2022-11-26T12:41:00.316Z,5.90
2022-11-26T12:46:00.022Z,5.90
2022-11-26T12:50:40.479Z,5.90
2022-11-26T12:54:53.741Z,6.00
2022-11-26T13:04:43.275Z,6.30
2022-11-26T13:09:16.185Z,6.30
2022-11-26T13:13:58.782Z,6.30
2022-11-26T13:18:02.715Z,6.20
2022-11-26T13:22:32.664Z,6.20
2022-11-26T13:27:21.426Z,6.00
2022-11-26T13:43:19.281Z,5.60
2022-11-26T13:47:30.233Z,5.50
2022-11-26T13:52:35.954Z,5.50
2022-11-26T13:56:39.203Z,5.50
2022-11-26T14:00:41.124Z,5.50
2022-11-26T14:04:53.744Z,5.50
2022-11-26T14:08:56.338Z,5.60
2022-11-26T14:13:04.434Z,5.50
2022-11-26T14:17:21.490Z,5.50
2022-11-26T14:21:57.802Z,5.40
2022-11-26T14:26:37.827Z,5.40
2022-11-26T14:30:47.119Z,5.30
2022-11-26T14:35:18.516Z,5.30
2022-11-26T14:39:20.626Z,5.30
2022-11-26T14:43:28.941Z,5.30
2022-11-26T14:53:27.414Z,5.20
2022-11-26T14:58:07.533Z,5.10
2022-11-26T15:02:24.149Z,5.10
2022-11-26T15:07:17.884Z,5.10
2022-11-26T15:11:47.758Z,5.10
2022-11-26T15:16:42.445Z,5.10
2022-11-26T15:20:50.698Z,5.00
2022-11-26T15:24:57.435Z,5.00
2022-11-26T15:28:59.504Z,5.00
2022-11-26T15:33:17.436Z,5.00
2022-11-26T15:37:19.321Z,4.90
2022-11-26T15:41:23.744Z,4.90
2022-11-26T15:45:41.216Z,4.90
2022-11-26T15:50:20.683Z,4.90
2022-11-26T15:54:43.496Z,4.80
2022-11-26T15:59:19.863Z,4.90
2022-11-26T16:03:49.708Z,4.80
2022-11-26T16:08:23.901Z,4.80
2022-11-26T16:13:05.308Z,4.80
2022-11-26T16:17:17.558Z,4.80
2022-11-26T16:21:38.350Z,4.80
2022-11-26T16:26:08.801Z,4.80
2022-11-26T16:30:17.405Z,4.80
2022-11-26T16:34:19.741Z,4.60
2022-11-26T16:38:24.584Z,4.60
2022-11-26T16:42:26.762Z,4.50
2022-11-26T16:46:53.372Z,4.40
2022-11-26T16:51:22.446Z,4.30
2022-11-26T16:55:49.943Z,4.20
2022-11-26T16:59:55.974Z,4.20
2022-11-26T17:03:58.110Z,4.10
2022-11-26T17:08:01.275Z,4.00
2022-11-26T17:12:03.412Z,4.00
2022-11-26T17:16:11.804Z,4.00
2022-11-26T17:20:19.257Z,3.90
2022-11-26T17:24:27.051Z,3.90
2022-11-26T17:28:38.506Z,3.80
2022-11-26T17:32:40.348Z,3.80
2022-11-26T17:36:42.260Z,3.80
2022-11-26T17:40:46.490Z,3.80
2022-11-26T17:44:48.947Z,3.80
2022-11-26T17:48:54.409Z,3.80
2022-11-26T17:52:58.900Z,3.90
2022-11-26T17:57:01.570Z,3.80
2022-11-26T18:01:03.400Z,3.70
2022-11-26T18:05:59.986Z,3.60
2022-11-26T18:10:02.192Z,3.60
2022-11-26T18:14:04.150Z,3.60
2022-11-26T18:18:07.551Z,3.70
2022-11-26T18:22:18.423Z,3.70
2022-11-26T18:26:20.355Z,3.70
2022-11-26T18:30:22.372Z,3.70
2022-11-26T18:34:50.819Z,3.70
2022-11-26T18:38:53.461Z,3.70
2022-11-26T18:42:57.738Z,3.70
2022-11-26T18:47:02.515Z,3.70
2022-11-26T18:51:33.102Z,3.80
2022-11-26T18:55:34.960Z,3.80
2022-11-26T18:59:41.667Z,3.80
2022-11-26T19:03:44.806Z,3.80
2022-11-26T19:07:46.689Z,3.90
2022-11-26T19:11:48.964Z,3.90
2022-11-26T19:16:43.066Z,3.90
2022-11-26T19:21:33.141Z,3.90
2022-11-26T19:25:35.422Z,3.80
2022-11-26T19:30:45.699Z,3.80
2022-11-26T19:34:47.817Z,3.70
2022-11-26T19:38:55.752Z,3.70
2022-11-26T19:43:28.937Z,3.60
2022-11-26T19:47:44.322Z,3.60
2022-11-26T19:51:46.390Z,3.60
2022-11-26T19:56:13.981Z,3.60
2022-11-26T20:00:16.099Z,3.60
2022-11-26T20:04:19.701Z,3.60
2022-11-26T20:08:21.670Z,3.60
2022-11-26T20:12:23.517Z,3.60
2022-11-26T20:16:29.502Z,3.60
2022-11-26T20:20:39.625Z,3.60
2022-11-26T20:24:42.706Z,3.60
2022-11-26T20:28:45.528Z,3.60
2022-11-26T20:32:49.202Z,3.60
2022-11-26T20:36:51.189Z,3.50
2022-11-26T20:41:21.779Z,3.50
2022-11-26T20:45:28.985Z,3.50
2022-11-26T20:49:34.528Z,3.60
2022-11-26T20:53:38.811Z,3.60
2022-11-26T20:58:50.455Z,3.60
2022-11-26T21:02:52.596Z,3.70
2022-11-26T21:06:54.504Z,3.60
2022-11-26T21:11:46.778Z,3.60
2022-11-26T21:15:50.379Z,3.60
2022-11-26T21:19:52.237Z,3.60
2022-11-26T21:23:55.107Z,3.60
2022-11-26T21:27:57.200Z,3.60
2022-11-26T21:32:06.374Z,3.60
2022-11-26T21:36:59.893Z,3.60
2022-11-26T21:41:33.735Z,3.60
2022-11-26T21:45:36.820Z,3.60
2022-11-26T21:49:39.051Z,3.50
2022-11-26T21:53:41.401Z,3.40
2022-11-26T21:58:08.940Z,3.40
2022-11-26T22:02:12.448Z,3.40
2022-11-26T22:06:15.657Z,3.40
2022-11-26T22:10:17.895Z,3.40
2022-11-26T22:14:23.546Z,3.40
2022-11-26T22:18:27.490Z,3.40
2022-11-26T22:22:29.694Z,3.40
2022-11-26T22:26:31.892Z,3.40
2022-11-26T22:30:33.969Z,3.50
2022-11-26T22:34:36.151Z,3.50
2022-11-26T22:38:39.829Z,3.40
2022-11-26T22:42:41.735Z,3.40
2022-11-26T22:47:11.048Z,3.40
2022-11-26T22:51:14.622Z,3.40
2022-11-26T22:55:20.271Z,3.40
2022-11-26T22:59:22.870Z,3.40
2022-11-26T23:03:28.519Z,3.40
2022-11-26T23:07:30.905Z,3.40
2022-11-26T23:11:57.953Z,3.40
2022-11-26T23:16:00.230Z,3.30
2022-11-26T23:20:02.401Z,3.30
2022-11-26T23:24:04.998Z,3.20
2022-11-26T23:28:07.599Z,3.10
2022-11-26T23:32:09.510Z,3.10
2022-11-26T23:36:11.416Z,3.20
2022-11-26T23:40:14.399Z,3.20
2022-11-26T23:44:16.338Z,3.20
2022-11-26T23:48:38.835Z,3.30
2022-11-26T23:52:40.848Z,3.30
2022-11-26T23:56:45.176Z,3.20
